sensor_id;sensor_type;location;lat;lon;timestamp;P1;durP1;ratioP1;P2;durP2;ratioP2
3667;SDS011;24099;47.102;15.440;2023-03-30T04:48:29;5.40;;;1.55;;
3667;SDS011;24099;47.102;15.440;2023-03-30T04:51:30;3.25;;;1.60;;
3667;SDS011;24099;47.102;15.440;2023-03-30T04:54:27;3.30;;;1.90;;
3667;SDS011;24099;47.102;15.440;2023-03-30T04:57:24;1.58;;;1.40;;
3667;SDS011;24099;47.102;15.440;2023-03-30T05:00:06;2.42;;;1.45;;
3667;SDS011;24099;47.102;15.440;2023-03-30T05:03:01;2.15;;;1.40;;
3667;SDS011;24099;47.102;15.440;2023-03-30T05:05:53;2.05;;;1.83;;
3667;SDS011;24099;47.102;15.440;2023-03-30T05:08:42;1.70;;;1.20;;
3667;SDS011;24099;47.102;15.440;2023-03-30T05:11:24;2.55;;;1.10;;
3667;SDS011;24099;47.102;15.440;2023-03-30T05:14:15;2.10;;;1.30;;
3667;SDS011;24099;47.102;15.440;2023-03-30T05:17:06;1.52;;;1.33;;
3667;SDS011;24099;47.102;15.440;2023-03-30T05:19:53;7.70;;;1.42;;
3667;SDS011;24099;47.102;15.440;2023-03-30T05:22:58;2.28;;;1.58;;
3667;SDS011;24099;47.102;15.440;2023-03-30T05:25:56;1.58;;;1.45;;
3667;SDS011;24099;47.102;15.440;2023-03-30T05:31:29;1.48;;;1.38;;
3667;SDS011;24099;47.102;15.440;2023-03-30T05:34:16;1.20;;;1.10;;
3667;SDS011;24099;47.102;15.440;2023-03-30T05:37:04;1.90;;;1.00;;
3667;SDS011;24099;47.102;15.440;2023-03-30T05:42:20;1.27;;;1.02;;
3667;SDS011;24099;47.102;15.440;2023-03-30T05:47:36;2.72;;;1.23;;
3667;SDS011;24099;47.102;15.440;2023-03-30T05:50:39;4.57;;;1.48;;
3667;SDS011;24099;47.102;15.440;2023-03-30T05:53:31;1.52;;;1.10;;
3667;SDS011;24099;47.102;15.440;2023-03-30T05:56:18;2.25;;;1.88;;
3667;SDS011;24099;47.102;15.440;2023-03-30T05:59:14;2.15;;;1.40;;
3667;SDS011;24099;47.102;15.440;2023-03-30T06:02:21;1.70;;;1.50;;
3667;SDS011;24099;47.102;15.440;2023-03-30T06:04:53;1.63;;;1.52;;
3667;SDS011;24099;47.102;15.440;2023-03-30T06:07:22;1.85;;;1.20;;
3667;SDS011;24099;47.102;15.440;2023-03-30T06:09:50;1.02;;;0.93;;
3667;SDS011;24099;47.102;15.440;2023-03-30T06:12:27;1.00;;;0.90;;
3667;SDS011;24099;47.102;15.440;2023-03-30T06:14:56;2.88;;;1.30;;
3667;SDS011;24099;47.102;15.440;2023-03-30T06:17:53;5.82;;;1.58;;
3667;SDS011;24099;47.102;15.440;2023-03-30T06:20:22;4.40;;;1.50;;
3667;SDS011;24099;47.102;15.440;2023-03-30T06:22:50;2.28;;;1.48;;
3667;SDS011;24099;47.102;15.440;2023-03-30T06:25:22;2.33;;;1.27;;
3667;SDS011;24099;47.102;15.440;2023-03-30T06:27:53;2.90;;;1.83;;
3667;SDS011;24099;47.102;15.440;2023-03-30T06:30:23;5.22;;;1.70;;
3667;SDS011;24099;47.102;15.440;2023-03-30T06:32:54;2.65;;;1.63;;
3667;SDS011;24099;47.102;15.440;2023-03-30T06:35:34;4.43;;;1.38;;
3667;SDS011;24099;47.102;15.440;2023-03-30T06:38:02;2.60;;;1.58;;
3667;SDS011;24099;47.102;15.440;2023-03-30T06:40:31;3.42;;;1.60;;
3667;SDS011;24099;47.102;15.440;2023-03-30T06:43:00;5.18;;;1.65;;
3667;SDS011;24099;47.102;15.440;2023-03-30T06:45:51;1.73;;;1.30;;
3667;SDS011;24099;47.102;15.440;2023-03-30T06:48:22;1.77;;;1.27;;
3667;SDS011;24099;47.102;15.440;2023-03-30T06:51:10;3.00;;;1.63;;
3667;SDS011;24099;47.102;15.440;2023-03-30T06:53:41;3.00;;;1.92;;
3667;SDS011;24099;47.102;15.440;2023-03-30T06:56:09;2.97;;;1.75;;
3667;SDS011;24099;47.102;15.440;2023-03-30T06:58:53;14.00;;;2.13;;
3667;SDS011;24099;47.102;15.440;2023-03-30T07:01:22;7.65;;;1.70;;
3667;SDS011;24099;47.102;15.440;2023-03-30T07:04:18;2.95;;;1.60;;
3667;SDS011;24099;47.102;15.440;2023-03-30T07:07:19;3.47;;;1.50;;
3667;SDS011;24099;47.102;15.440;2023-03-30T07:09:49;6.22;;;3.17;;
3667;SDS011;24099;47.102;15.440;2023-03-30T07:12:18;7.07;;;2.95;;
3667;SDS011;24099;47.102;15.440;2023-03-30T07:14:49;8.13;;;3.00;;
3667;SDS011;24099;47.102;15.440;2023-03-30T07:17:18;10.35;;;3.58;;
3667;SDS011;24099;47.102;15.440;2023-03-30T07:19:49;13.27;;;3.08;;
3667;SDS011;24099;47.102;15.440;2023-03-30T07:22:18;3.88;;;2.38;;
3667;SDS011;24099;47.102;15.440;2023-03-30T07:24:46;7.50;;;2.92;;
3667;SDS011;24099;47.102;15.440;2023-03-30T07:27:18;5.50;;;2.40;;
3667;SDS011;24099;47.102;15.440;2023-03-30T07:29:59;5.20;;;2.27;;
3667;SDS011;24099;47.102;15.440;2023-03-30T07:32:27;4.22;;;2.63;;
3667;SDS011;24099;47.102;15.440;2023-03-30T07:34:55;6.43;;;2.15;;
3667;SDS011;24099;47.102;15.440;2023-03-30T07:37:26;6.70;;;2.22;;
3667;SDS011;24099;47.102;15.440;2023-03-30T07:40:00;9.63;;;2.45;;
3667;SDS011;24099;47.102;15.440;2023-03-30T07:42:37;6.18;;;2.75;;
3667;SDS011;24099;47.102;15.440;2023-03-30T07:45:13;7.28;;;2.67;;
3667;SDS011;24099;47.102;15.440;2023-03-30T07:47:46;4.93;;;2.40;;
3667;SDS011;24099;47.102;15.440;2023-03-30T07:50:14;6.72;;;2.88;;
3667;SDS011;24099;47.102;15.440;2023-03-30T07:52:45;9.40;;;2.45;;
3667;SDS011;24099;47.102;15.440;2023-03-30T07:55:13;9.90;;;3.70;;
3667;SDS011;24099;47.102;15.440;2023-03-30T07:57:49;4.68;;;1.83;;
3667;SDS011;24099;47.102;15.440;2023-03-30T08:00:19;12.20;;;2.20;;
3667;SDS011;24099;47.102;15.440;2023-03-30T08:03:17;5.30;;;2.00;;
3667;SDS011;24099;47.102;15.440;2023-03-30T08:05:51;7.78;;;2.35;;
3667;SDS011;24099;47.102;15.440;2023-03-30T08:08:21;2.83;;;1.80;;
3667;SDS011;24099;47.102;15.440;2023-03-30T08:10:51;5.38;;;1.95;;
3667;SDS011;24099;47.102;15.440;2023-03-30T08:13:23;5.97;;;2.33;;
3667;SDS011;24099;47.102;15.440;2023-03-30T08:15:53;7.43;;;2.30;;
3667;SDS011;24099;47.102;15.440;2023-03-30T08:18:21;5.07;;;2.35;;
3667;SDS011;24099;47.102;15.440;2023-03-30T08:20:50;4.20;;;2.17;;
3667;SDS011;24099;47.102;15.440;2023-03-30T08:23:19;8.63;;;2.55;;
3667;SDS011;24099;47.102;15.440;2023-03-30T08:25:47;4.78;;;1.83;;
3667;SDS011;24099;47.102;15.440;2023-03-30T08:28:18;3.38;;;1.98;;
3667;SDS011;24099;47.102;15.440;2023-03-30T08:30:47;5.53;;;2.47;;
3667;SDS011;24099;47.102;15.440;2023-03-30T08:33:17;7.63;;;2.30;;
3667;SDS011;24099;47.102;15.440;2023-03-30T08:35:47;3.72;;;2.00;;
3667;SDS011;24099;47.102;15.440;2023-03-30T08:38:15;5.60;;;1.80;;
3667;SDS011;24099;47.102;15.440;2023-03-30T08:40:48;3.08;;;2.00;;
3667;SDS011;24099;47.102;15.440;2023-03-30T08:43:24;4.10;;;1.95;;
3667;SDS011;24099;47.102;15.440;2023-03-30T08:46:08;8.50;;;2.20;;
3667;SDS011;24099;47.102;15.440;2023-03-30T08:48:40;4.65;;;2.10;;
3667;SDS011;24099;47.102;15.440;2023-03-30T08:51:15;7.63;;;2.20;;
3667;SDS011;24099;47.102;15.440;2023-03-30T08:53:53;10.07;;;2.67;;
3667;SDS011;24099;47.102;15.440;2023-03-30T08:58:58;9.70;;;2.42;;
3667;SDS011;24099;47.102;15.440;2023-03-30T09:01:40;5.35;;;2.30;;
3667;SDS011;24099;47.102;15.440;2023-03-30T09:04:17;3.17;;;1.95;;
3667;SDS011;24099;47.102;15.440;2023-03-30T09:06:53;11.02;;;2.63;;
3667;SDS011;24099;47.102;15.440;2023-03-30T09:09:26;1.70;;;1.52;;
3667;SDS011;24099;47.102;15.440;2023-03-30T09:11:58;4.93;;;1.80;;
3667;SDS011;24099;47.102;15.440;2023-03-30T09:14:32;6.40;;;2.15;;
3667;SDS011;24099;47.102;15.440;2023-03-30T09:17:07;7.40;;;2.10;;
3667;SDS011;24099;47.102;15.440;2023-03-30T09:19:44;4.00;;;2.10;;
3667;SDS011;24099;47.102;15.440;2023-03-30T09:22:17;3.63;;;1.42;;
3667;SDS011;24099;47.102;15.440;2023-03-30T09:24:48;2.50;;;1.73;;
3667;SDS011;24099;47.102;15.440;2023-03-30T09:27:17;4.47;;;1.98;;
3667;SDS011;24099;47.102;15.440;2023-03-30T09:29:54;6.72;;;2.03;;
3667;SDS011;24099;47.102;15.440;2023-03-30T09:32:31;3.05;;;1.77;;
3667;SDS011;24099;47.102;15.440;2023-03-30T09:35:08;6.55;;;1.88;;
3667;SDS011;24099;47.102;15.440;2023-03-30T09:37:40;9.25;;;1.80;;
3667;SDS011;24099;47.102;15.440;2023-03-30T09:40:16;3.05;;;1.83;;
3667;SDS011;24099;47.102;15.440;2023-03-30T09:42:53;2.80;;;1.50;;
3667;SDS011;24099;47.102;15.440;2023-03-30T09:45:27;5.65;;;2.33;;
3667;SDS011;24099;47.102;15.440;2023-03-30T09:48:01;4.75;;;1.98;;
3667;SDS011;24099;47.102;15.440;2023-03-30T09:50:37;5.63;;;2.03;;
3667;SDS011;24099;47.102;15.440;2023-03-30T09:53:06;3.78;;;1.88;;
3667;SDS011;24099;47.102;15.440;2023-03-30T09:55:53;5.55;;;1.63;;
3667;SDS011;24099;47.102;15.440;2023-03-30T09:58:27;6.78;;;1.80;;
3667;SDS011;24099;47.102;15.440;2023-03-30T10:01:00;7.82;;;1.98;;
3667;SDS011;24099;47.102;15.440;2023-03-30T10:03:31;3.33;;;1.73;;
3667;SDS011;24099;47.102;15.440;2023-03-30T10:06:03;3.50;;;1.88;;
3667;SDS011;24099;47.102;15.440;2023-03-30T10:08:34;2.92;;;1.65;;
3667;SDS011;24099;47.102;15.440;2023-03-30T10:11:07;2.80;;;1.85;;
3667;SDS011;24099;47.102;15.440;2023-03-30T10:13:36;2.78;;;2.00;;
3667;SDS011;24099;47.102;15.440;2023-03-30T10:16:11;4.15;;;1.67;;
3667;SDS011;24099;47.102;15.440;2023-03-30T10:18:51;8.27;;;2.72;;
3667;SDS011;24099;47.102;15.440;2023-03-30T10:21:25;5.70;;;2.90;;
3667;SDS011;24099;47.102;15.440;2023-03-30T10:23:58;7.03;;;2.78;;
3667;SDS011;24099;47.102;15.440;2023-03-30T10:26:34;6.00;;;2.75;;
3667;SDS011;24099;47.102;15.440;2023-03-30T10:29:04;6.18;;;2.83;;
3667;SDS011;24099;47.102;15.440;2023-03-30T10:31:37;14.15;;;3.05;;
3667;SDS011;24099;47.102;15.440;2023-03-30T10:34:13;7.07;;;2.92;;
3667;SDS011;24099;47.102;15.440;2023-03-30T10:36:46;7.68;;;3.42;;
3667;SDS011;24099;47.102;15.440;2023-03-30T10:39:21;6.72;;;2.33;;
3667;SDS011;24099;47.102;15.440;2023-03-30T10:41:54;4.30;;;2.80;;
3667;SDS011;24099;47.102;15.440;2023-03-30T10:44:28;4.38;;;2.40;;
3667;SDS011;24099;47.102;15.440;2023-03-30T10:47:01;4.72;;;2.45;;
3667;SDS011;24099;47.102;15.440;2023-03-30T10:49:38;4.60;;;2.33;;
3667;SDS011;24099;47.102;15.440;2023-03-30T10:52:19;4.70;;;2.67;;
3667;SDS011;24099;47.102;15.440;2023-03-30T10:54:58;4.85;;;2.33;;
3667;SDS011;24099;47.102;15.440;2023-03-30T10:57:34;5.38;;;2.25;;
3667;SDS011;24099;47.102;15.440;2023-03-30T11:00:16;4.50;;;2.33;;
3667;SDS011;24099;47.102;15.440;2023-03-30T11:02:59;8.43;;;2.45;;
3667;SDS011;24099;47.102;15.440;2023-03-30T11:05:31;7.25;;;2.15;;
3667;SDS011;24099;47.102;15.440;2023-03-30T11:08:03;2.95;;;2.30;;
3667;SDS011;24099;47.102;15.440;2023-03-30T11:10:35;6.25;;;2.08;;
3667;SDS011;24099;47.102;15.440;2023-03-30T11:13:05;7.35;;;2.60;;
3667;SDS011;24099;47.102;15.440;2023-03-30T11:15:38;5.15;;;2.45;;
3667;SDS011;24099;47.102;15.440;2023-03-30T11:18:12;3.78;;;2.25;;
3667;SDS011;24099;47.102;15.440;2023-03-30T11:20:46;9.45;;;2.50;;
3667;SDS011;24099;47.102;15.440;2023-03-30T11:23:22;7.30;;;2.10;;
3667;SDS011;24099;47.102;15.440;2023-03-30T11:26:01;4.55;;;2.20;;
3667;SDS011;24099;47.102;15.440;2023-03-30T11:28:41;3.70;;;1.98;;
3667;SDS011;24099;47.102;15.440;2023-03-30T11:31:31;2.85;;;1.92;;
3667;SDS011;24099;47.102;15.440;2023-03-30T11:34:14;3.63;;;2.20;;
3667;SDS011;24099;47.102;15.440;2023-03-30T11:36:52;8.80;;;2.75;;
3667;SDS011;24099;47.102;15.440;2023-03-30T11:39:28;4.63;;;2.83;;
3667;SDS011;24099;47.102;15.440;2023-03-30T11:42:02;4.07;;;2.03;;
3667;SDS011;24099;47.102;15.440;2023-03-30T11:44:44;8.60;;;2.15;;
3667;SDS011;24099;47.102;15.440;2023-03-30T11:47:17;11.27;;;3.17;;
3667;SDS011;24099;47.102;15.440;2023-03-30T11:50:01;4.60;;;2.40;;
3667;SDS011;24099;47.102;15.440;2023-03-30T11:52:50;6.30;;;2.58;;
3667;SDS011;24099;47.102;15.440;2023-03-30T11:58:12;7.35;;;2.45;;
3667;SDS011;24099;47.102;15.440;2023-03-30T12:00:48;6.68;;;2.30;;
3667;SDS011;24099;47.102;15.440;2023-03-30T12:03:33;3.78;;;1.92;;
3667;SDS011;24099;47.102;15.440;2023-03-30T12:06:13;6.00;;;2.30;;
3667;SDS011;24099;47.102;15.440;2023-03-30T12:09:01;6.97;;;2.30;;
3667;SDS011;24099;47.102;15.440;2023-03-30T12:11:44;5.07;;;2.13;;
3667;SDS011;24099;47.102;15.440;2023-03-30T12:17:18;5.95;;;1.88;;
3667;SDS011;24099;47.102;15.440;2023-03-30T12:19:58;2.53;;;1.83;;
3667;SDS011;24099;47.102;15.440;2023-03-30T12:22:42;5.47;;;2.00;;
3667;SDS011;24099;47.102;15.440;2023-03-30T12:25:19;2.83;;;1.70;;
3667;SDS011;24099;47.102;15.440;2023-03-30T12:28:01;5.43;;;2.03;;
3667;SDS011;24099;47.102;15.440;2023-03-30T12:30:41;3.03;;;1.65;;
3667;SDS011;24099;47.102;15.440;2023-03-30T12:33:16;4.25;;;1.73;;
3667;SDS011;24099;47.102;15.440;2023-03-30T12:35:51;2.65;;;1.70;;
3667;SDS011;24099;47.102;15.440;2023-03-30T12:38:35;4.47;;;1.63;;
3667;SDS011;24099;47.102;15.440;2023-03-30T12:41:10;6.22;;;2.28;;
3667;SDS011;24099;47.102;15.440;2023-03-30T12:46:52;2.38;;;1.67;;
3667;SDS011;24099;47.102;15.440;2023-03-30T12:49:32;3.17;;;1.88;;
3667;SDS011;24099;47.102;15.440;2023-03-30T12:52:15;2.80;;;1.92;;
3667;SDS011;24099;47.102;15.440;2023-03-30T12:54:58;3.60;;;1.92;;
3667;SDS011;24099;47.102;15.440;2023-03-30T12:57:48;2.70;;;1.85;;
3667;SDS011;24099;47.102;15.440;2023-03-30T13:00:29;6.20;;;2.70;;
3667;SDS011;24099;47.102;15.440;2023-03-30T13:03:24;2.30;;;1.50;;
3667;SDS011;24099;47.102;15.440;2023-03-30T13:06:04;6.05;;;2.22;;
3667;SDS011;24099;47.102;15.440;2023-03-30T13:08:40;2.08;;;1.55;;
3667;SDS011;24099;47.102;15.440;2023-03-30T13:11:12;6.55;;;2.42;;
3667;SDS011;24099;47.102;15.440;2023-03-30T13:19:41;4.75;;;2.03;;
3667;SDS011;24099;47.102;15.440;2023-03-30T13:27:56;4.88;;;2.25;;
3667;SDS011;24099;47.102;15.440;2023-03-30T13:30:25;5.18;;;2.20;;
3667;SDS011;24099;47.102;15.440;2023-03-30T13:33:08;5.00;;;1.60;;
3667;SDS011;24099;47.102;15.440;2023-03-30T13:35:50;1.67;;;1.40;;
3667;SDS011;24099;47.102;15.440;2023-03-30T13:41:24;4.78;;;1.98;;
3667;SDS011;24099;47.102;15.440;2023-03-30T13:44:09;3.25;;;1.83;;
3667;SDS011;24099;47.102;15.440;2023-03-30T13:46:51;3.35;;;1.80;;
3667;SDS011;24099;47.102;15.440;2023-03-30T13:49:35;9.80;;;2.22;;
3667;SDS011;24099;47.102;15.440;2023-03-30T13:52:13;3.47;;;1.88;;
3667;SDS011;24099;47.102;15.440;2023-03-30T13:54:45;5.35;;;2.10;;
3667;SDS011;24099;47.102;15.440;2023-03-30T13:57:16;4.72;;;2.08;;
3667;SDS011;24099;47.102;15.440;2023-03-30T13:59:49;3.90;;;1.90;;
3667;SDS011;24099;47.102;15.440;2023-03-30T14:02:21;3.17;;;1.77;;
3667;SDS011;24099;47.102;15.440;2023-03-30T14:04:53;5.85;;;1.77;;
3667;SDS011;24099;47.102;15.440;2023-03-30T14:07:39;3.90;;;1.73;;
3667;SDS011;24099;47.102;15.440;2023-03-30T14:10:13;6.35;;;2.20;;
3667;SDS011;24099;47.102;15.440;2023-03-30T14:12:47;9.23;;;1.83;;
3667;SDS011;24099;47.102;15.440;2023-03-30T14:15:20;5.25;;;2.10;;
3667;SDS011;24099;47.102;15.440;2023-03-30T14:17:52;2.63;;;1.42;;
3667;SDS011;24099;47.102;15.440;2023-03-30T14:20:33;3.05;;;1.70;;
3667;SDS011;24099;47.102;15.440;2023-03-30T14:23:12;8.18;;;2.00;;
3667;SDS011;24099;47.102;15.440;2023-03-30T14:25:43;6.97;;;1.90;;
3667;SDS011;24099;47.102;15.440;2023-03-30T14:28:14;6.90;;;1.83;;
3667;SDS011;24099;47.102;15.440;2023-03-30T14:30:49;5.53;;;1.40;;
3667;SDS011;24099;47.102;15.440;2023-03-30T14:33:18;3.58;;;1.85;;
3667;SDS011;24099;47.102;15.440;2023-03-30T14:35:48;11.48;;;2.25;;
3667;SDS011;24099;47.102;15.440;2023-03-30T14:38:19;4.53;;;1.40;;
3667;SDS011;24099;47.102;15.440;2023-03-30T14:40:49;3.20;;;1.50;;
3667;SDS011;24099;47.102;15.440;2023-03-30T14:43:20;3.70;;;1.60;;
3667;SDS011;24099;47.102;15.440;2023-03-30T14:45:49;2.90;;;1.65;;
3667;SDS011;24099;47.102;15.440;2023-03-30T14:48:20;6.03;;;1.95;;
3667;SDS011;24099;47.102;15.440;2023-03-30T14:50:52;2.00;;;1.40;;
3667;SDS011;24099;47.102;15.440;2023-03-30T14:53:22;4.00;;;1.40;;
3667;SDS011;24099;47.102;15.440;2023-03-30T14:55:52;1.42;;;1.10;;
3667;SDS011;24099;47.102;15.440;2023-03-30T14:58:23;3.75;;;1.13;;
3667;SDS011;24099;47.102;15.440;2023-03-30T15:00:54;2.65;;;1.55;;
3667;SDS011;24099;47.102;15.440;2023-03-30T15:03:25;5.50;;;2.10;;
3667;SDS011;24099;47.102;15.440;2023-03-30T15:06:00;5.25;;;1.35;;
3667;SDS011;24099;47.102;15.440;2023-03-30T15:08:31;3.90;;;1.60;;
3667;SDS011;24099;47.102;15.440;2023-03-30T15:11:05;2.83;;;1.48;;
3667;SDS011;24099;47.102;15.440;2023-03-30T15:13:35;2.90;;;1.70;;
3667;SDS011;24099;47.102;15.440;2023-03-30T15:16:07;3.92;;;1.52;;
3667;SDS011;24099;47.102;15.440;2023-03-30T15:18:40;5.80;;;1.38;;
3667;SDS011;24099;47.102;15.440;2023-03-30T15:21:11;3.05;;;1.63;;
3667;SDS011;24099;47.102;15.440;2023-03-30T15:23:41;6.40;;;2.08;;
3667;SDS011;24099;47.102;15.440;2023-03-30T15:26:12;4.47;;;1.90;;
3667;SDS011;24099;47.102;15.440;2023-03-30T15:28:42;1.67;;;1.35;;
3667;SDS011;24099;47.102;15.440;2023-03-30T15:31:12;2.35;;;1.55;;
3667;SDS011;24099;47.102;15.440;2023-03-30T15:33:41;3.85;;;1.50;;
3667;SDS011;24099;47.102;15.440;2023-03-30T15:36:12;8.80;;;2.15;;
3667;SDS011;24099;47.102;15.440;2023-03-30T15:38:45;3.83;;;1.90;;
3667;SDS011;24099;47.102;15.440;2023-03-30T15:41:15;2.75;;;1.67;;
3667;SDS011;24099;47.102;15.440;2023-03-30T15:43:57;8.52;;;1.95;;
3667;SDS011;24099;47.102;15.440;2023-03-30T15:46:35;9.82;;;1.75;;
3667;SDS011;24099;47.102;15.440;2023-03-30T15:49:05;6.15;;;1.75;;
3667;SDS011;24099;47.102;15.440;2023-03-30T15:51:37;2.38;;;1.60;;
3667;SDS011;24099;47.102;15.440;2023-03-30T15:54:11;4.18;;;1.83;;
3667;SDS011;24099;47.102;15.440;2023-03-30T15:56:41;6.13;;;1.75;;
3667;SDS011;24099;47.102;15.440;2023-03-30T15:59:14;2.53;;;1.50;;
3667;SDS011;24099;47.102;15.440;2023-03-30T16:01:47;3.75;;;1.50;;
3667;SDS011;24099;47.102;15.440;2023-03-30T16:04:18;2.20;;;1.50;;
3667;SDS011;24099;47.102;15.440;2023-03-30T16:06:50;5.82;;;1.50;;
3667;SDS011;24099;47.102;15.440;2023-03-30T16:09:19;5.60;;;1.90;;
3667;SDS011;24099;47.102;15.440;2023-03-30T16:11:47;2.35;;;1.23;;
3667;SDS011;24099;47.102;15.440;2023-03-30T16:14:17;1.83;;;1.30;;
3667;SDS011;24099;47.102;15.440;2023-03-30T16:16:46;3.33;;;1.30;;
3667;SDS011;24099;47.102;15.440;2023-03-30T16:19:16;2.65;;;1.40;;
3667;SDS011;24099;47.102;15.440;2023-03-30T16:21:46;2.88;;;1.30;;
3667;SDS011;24099;47.102;15.440;2023-03-30T16:24:15;2.25;;;1.27;;
3667;SDS011;24099;47.102;15.440;2023-03-30T16:26:44;2.17;;;1.50;;
3667;SDS011;24099;47.102;15.440;2023-03-30T16:29:13;2.08;;;1.40;;
3667;SDS011;24099;47.102;15.440;2023-03-30T16:31:46;3.00;;;1.15;;
3667;SDS011;24099;47.102;15.440;2023-03-30T16:34:14;1.48;;;1.20;;
3667;SDS011;24099;47.102;15.440;2023-03-30T16:36:42;1.55;;;1.20;;
3667;SDS011;24099;47.102;15.440;2023-03-30T16:39:13;3.88;;;1.38;;
3667;SDS011;24099;47.102;15.440;2023-03-30T16:41:43;1.60;;;1.30;;
3667;SDS011;24099;47.102;15.440;2023-03-30T16:44:17;2.33;;;1.60;;
3667;SDS011;24099;47.102;15.440;2023-03-30T16:46:47;3.15;;;1.33;;
3667;SDS011;24099;47.102;15.440;2023-03-30T16:49:15;2.55;;;1.15;;
3667;SDS011;24099;47.102;15.440;2023-03-30T16:51:47;1.52;;;1.30;;
3667;SDS011;24099;47.102;15.440;2023-03-30T16:54:16;5.50;;;1.70;;
3667;SDS011;24099;47.102;15.440;2023-03-30T16:56:45;2.55;;;1.60;;
3667;SDS011;24099;47.102;15.440;2023-03-30T16:59:16;3.13;;;1.17;;
3667;SDS011;24099;47.102;15.440;2023-03-30T17:01:47;3.40;;;1.42;;
3667;SDS011;24099;47.102;15.440;2023-03-30T17:04:15;11.88;;;2.05;;
3667;SDS011;24099;47.102;15.440;2023-03-30T17:06:42;3.85;;;1.52;;
3667;SDS011;24099;47.102;15.440;2023-03-30T17:09:11;3.88;;;1.50;;
3667;SDS011;24099;47.102;15.440;2023-03-30T17:11:43;5.75;;;2.42;;
3667;SDS011;24099;47.102;15.440;2023-03-30T17:14:12;9.38;;;2.33;;
3667;SDS011;24099;47.102;15.440;2023-03-30T17:16:40;6.93;;;1.63;;
3667;SDS011;24099;47.102;15.440;2023-03-30T17:19:08;4.97;;;1.98;;
3667;SDS011;24099;47.102;15.440;2023-03-30T17:21:37;5.65;;;1.35;;
3667;SDS011;24099;47.102;15.440;2023-03-30T17:24:07;2.15;;;1.40;;
3667;SDS011;24099;47.102;15.440;2023-03-30T17:26:36;2.33;;;1.42;;
3667;SDS011;24099;47.102;15.440;2023-03-30T17:29:06;10.40;;;1.48;;
3667;SDS011;24099;47.102;15.440;2023-03-30T17:31:34;5.40;;;1.33;;
3667;SDS011;24099;47.102;15.440;2023-03-30T17:34:02;1.77;;;0.90;;
3667;SDS011;24099;47.102;15.440;2023-03-30T17:36:31;3.00;;;1.33;;
3667;SDS011;24099;47.102;15.440;2023-03-30T17:38:58;2.00;;;1.25;;
3667;SDS011;24099;47.102;15.440;2023-03-30T17:41:29;6.50;;;0.98;;
3667;SDS011;24099;47.102;15.440;2023-03-30T17:43:57;3.53;;;0.80;;
3667;SDS011;24099;47.102;15.440;2023-03-30T17:46:30;0.50;;;0.50;;
3667;SDS011;24099;47.102;15.440;2023-03-30T17:49:00;1.90;;;0.60;;
3667;SDS011;24099;47.102;15.440;2023-03-30T17:51:27;0.75;;;0.60;;
3667;SDS011;24099;47.102;15.440;2023-03-30T17:53:57;1.92;;;0.77;;
3667;SDS011;24099;47.102;15.440;2023-03-30T17:56:24;1.65;;;1.00;;
3667;SDS011;24099;47.102;15.440;2023-03-30T17:58:52;1.10;;;0.90;;
3667;SDS011;24099;47.102;15.440;2023-03-30T18:01:20;1.00;;;0.90;;
3667;SDS011;24099;47.102;15.440;2023-03-30T18:03:49;1.17;;;0.68;;
3667;SDS011;24099;47.102;15.440;2023-03-30T18:06:17;0.63;;;0.63;;
3667;SDS011;24099;47.102;15.440;2023-03-30T18:08:44;0.63;;;0.63;;
3667;SDS011;24099;47.102;15.440;2023-03-30T18:11:12;0.52;;;0.52;;
3667;SDS011;24099;47.102;15.440;2023-03-30T18:13:40;1.17;;;0.70;;
3667;SDS011;24099;47.102;15.440;2023-03-30T18:16:09;2.28;;;0.80;;
3667;SDS011;24099;47.102;15.440;2023-03-30T18:18:38;2.30;;;0.88;;
3667;SDS011;24099;47.102;15.440;2023-03-30T18:21:09;1.10;;;1.00;;
3667;SDS011;24099;47.102;15.440;2023-03-30T18:23:37;0.70;;;0.70;;
3667;SDS011;24099;47.102;15.440;2023-03-30T18:26:05;1.33;;;0.68;;
3667;SDS011;24099;47.102;15.440;2023-03-30T18:28:35;1.27;;;0.80;;
3667;SDS011;24099;47.102;15.440;2023-03-30T18:31:04;1.27;;;0.68;;
3667;SDS011;24099;47.102;15.440;2023-03-30T18:33:32;1.25;;;0.70;;
3667;SDS011;24099;47.102;15.440;2023-03-30T18:36:00;1.15;;;0.60;;
3667;SDS011;24099;47.102;15.440;2023-03-30T18:38:33;0.63;;;0.50;;
3667;SDS011;24099;47.102;15.440;2023-03-30T18:41:03;0.70;;;0.63;;
3667;SDS011;24099;47.102;15.440;2023-03-30T18:43:32;0.50;;;0.50;;
3667;SDS011;24099;47.102;15.440;2023-03-30T18:46:00;1.40;;;0.88;;
3667;SDS011;24099;47.102;15.440;2023-03-30T18:48:31;1.83;;;0.93;;
3667;SDS011;24099;47.102;15.440;2023-03-30T18:50:58;0.60;;;0.60;;
3667;SDS011;24099;47.102;15.440;2023-03-30T18:53:27;0.50;;;0.50;;
3667;SDS011;24099;47.102;15.440;2023-03-30T18:55:56;1.25;;;1.10;;
3667;SDS011;24099;47.102;15.440;2023-03-30T18:58:28;0.80;;;0.80;;
3667;SDS011;24099;47.102;15.440;2023-03-30T19:00:57;1.52;;;0.85;;
3667;SDS011;24099;47.102;15.440;2023-03-30T19:03:26;2.20;;;0.85;;
3667;SDS011;24099;47.102;15.440;2023-03-30T19:05:54;3.13;;;0.70;;
3667;SDS011;24099;47.102;15.440;2023-03-30T19:08:23;2.75;;;1.45;;
3667;SDS011;24099;47.102;15.440;2023-03-30T19:10:55;1.23;;;0.65;;
3667;SDS011;24099;47.102;15.440;2023-03-30T19:16:06;0.60;;;0.60;;
3667;SDS011;24099;47.102;15.440;2023-03-30T19:18:35;0.55;;;0.45;;
3667;SDS011;24099;47.102;15.440;2023-03-30T19:21:03;0.90;;;0.73;;
3667;SDS011;24099;47.102;15.440;2023-03-30T19:23:31;2.00;;;0.80;;
3667;SDS011;24099;47.102;15.440;2023-03-30T19:26:00;1.75;;;0.50;;
3667;SDS011;24099;47.102;15.440;2023-03-30T19:28:30;0.55;;;0.50;;
3667;SDS011;24099;47.102;15.440;2023-03-30T19:31:02;1.02;;;0.55;;
3667;SDS011;24099;47.102;15.440;2023-03-30T19:33:30;0.50;;;0.50;;
3667;SDS011;24099;47.102;15.440;2023-03-30T19:35:58;3.17;;;0.68;;
3667;SDS011;24099;47.102;15.440;2023-03-30T19:38:28;0.60;;;0.60;;
3667;SDS011;24099;47.102;15.440;2023-03-30T19:41:01;0.50;;;0.50;;
3667;SDS011;24099;47.102;15.440;2023-03-30T19:43:34;0.47;;;0.47;;
3667;SDS011;24099;47.102;15.440;2023-03-30T19:46:02;0.40;;;0.40;;
3667;SDS011;24099;47.102;15.440;2023-03-30T19:48:30;0.70;;;0.57;;
3667;SDS011;24099;47.102;15.440;2023-03-30T19:51:04;0.60;;;0.60;;
3667;SDS011;24099;47.102;15.440;2023-03-30T19:53:36;1.15;;;0.60;;
3667;SDS011;24099;47.102;15.440;2023-03-30T19:56:07;0.43;;;0.40;;
3667;SDS011;24099;47.102;15.440;2023-03-30T19:58:36;6.05;;;0.80;;
3667;SDS011;24099;47.102;15.440;2023-03-30T20:01:05;0.73;;;0.65;;
3667;SDS011;24099;47.102;15.440;2023-03-30T20:03:34;0.50;;;0.45;;
3667;SDS011;24099;47.102;15.440;2023-03-30T20:06:02;0.43;;;0.43;;
3667;SDS011;24099;47.102;15.440;2023-03-30T20:08:33;4.68;;;0.93;;
3667;SDS011;24099;47.102;15.440;2023-03-30T20:11:03;2.08;;;0.60;;
3667;SDS011;24099;47.102;15.440;2023-03-30T20:13:33;2.47;;;0.60;;
3667;SDS011;24099;47.102;15.440;2023-03-30T20:16:01;0.50;;;0.50;;
3667;SDS011;24099;47.102;15.440;2023-03-30T20:18:30;0.90;;;0.70;;
3667;SDS011;24099;47.102;15.440;2023-03-30T20:21:01;3.53;;;0.80;;
3667;SDS011;24099;47.102;15.440;2023-03-30T20:23:29;0.93;;;0.80;;
3667;SDS011;24099;47.102;15.440;2023-03-30T20:25:57;0.60;;;0.60;;
3667;SDS011;24099;47.102;15.440;2023-03-30T20:28:29;6.53;;;0.95;;
3667;SDS011;24099;47.102;15.440;2023-03-30T20:30:59;0.57;;;0.57;;
3667;SDS011;24099;47.102;15.440;2023-03-30T20:33:27;1.02;;;0.90;;
3667;SDS011;24099;47.102;15.440;2023-03-30T20:35:57;0.50;;;0.50;;
3667;SDS011;24099;47.102;15.440;2023-03-30T20:38:26;0.70;;;0.70;;
3667;SDS011;24099;47.102;15.440;2023-03-30T20:40:54;1.65;;;0.80;;
3667;SDS011;24099;47.102;15.440;2023-03-30T20:43:22;0.70;;;0.70;;
3667;SDS011;24099;47.102;15.440;2023-03-30T20:45:51;0.70;;;0.70;;
3667;SDS011;24099;47.102;15.440;2023-03-30T20:48:28;0.63;;;0.63;;
3667;SDS011;24099;47.102;15.440;2023-03-30T20:50:58;3.47;;;0.57;;
3667;SDS011;24099;47.102;15.440;2023-03-30T20:53:27;0.75;;;0.70;;